createdAt,value
2018-12-01T00:00:27.058Z,62.00
2018-12-01T00:01:27.039Z,72.20
2018-12-01T00:02:27.028Z,70.10
2018-12-01T00:03:27.024Z,70.50
2018-12-01T00:04:27.005Z,68.90
2018-12-01T00:05:27.019Z,68.40
2018-12-01T00:06:26.995Z,65.30
2018-12-01T00:07:26.972Z,64.00
2018-12-01T00:08:26.962Z,62.60
2018-12-01T00:09:26.953Z,62.40
2018-12-01T00:10:26.967Z,62.90
2018-12-01T00:11:26.942Z,64.90
2018-12-01T00:12:26.933Z,60.00
2018-12-01T00:13:26.915Z,66.70
2018-12-01T00:14:26.904Z,64.80
2018-12-01T00:15:26.917Z,62.50
2018-12-01T00:16:26.882Z,60.70
2018-12-01T00:17:26.876Z,64.40
2018-12-01T00:18:26.857Z,63.00
2018-12-01T00:19:26.847Z,60.70
2018-12-01T00:20:26.841Z,59.10
2018-12-01T00:21:26.844Z,58.50
2018-12-01T00:22:26.819Z,61.50
2018-12-01T00:23:26.815Z,56.80
2018-12-01T00:24:26.808Z,56.20
2018-12-01T00:25:26.820Z,62.90
2018-12-01T00:26:26.778Z,55.30
2018-12-01T00:27:26.767Z,55.40
2018-12-01T00:28:26.751Z,57.20
2018-12-01T00:29:26.754Z,56.70
2018-12-01T00:30:26.730Z,61.80
2018-12-01T00:31:26.765Z,60.10
2018-12-01T00:32:26.715Z,59.90
2018-12-01T00:33:26.700Z,63.00
2018-12-01T00:34:26.690Z,59.40
2018-12-01T00:35:26.688Z,62.40
2018-12-01T00:36:26.671Z,60.60
2018-12-01T00:37:26.674Z,56.50
2018-12-01T00:38:26.653Z,55.20
2018-12-01T00:39:26.641Z,51.80
2018-12-01T00:40:26.626Z,55.40
2018-12-01T00:41:26.626Z,58.50
2018-12-01T00:42:26.643Z,59.30
2018-12-01T00:43:26.597Z,58.70
2018-12-01T00:44:26.674Z,57.30
2018-12-01T00:45:26.575Z,63.20
2018-12-01T00:46:26.568Z,60.70
2018-12-01T00:47:26.554Z,61.60
2018-12-01T00:48:26.586Z,57.90
2018-12-01T00:49:26.532Z,56.70
2018-12-01T00:50:26.521Z,56.10
2018-12-01T00:51:26.509Z,60.80
2018-12-01T00:52:26.499Z,58.40
2018-12-01T00:53:26.497Z,60.90
2018-12-01T00:54:26.495Z,60.80
2018-12-01T00:55:26.475Z,55.80
2018-12-01T00:56:26.458Z,60.30
2018-12-01T00:57:26.449Z,59.70
2018-12-01T00:58:26.437Z,60.20
2018-12-01T00:59:26.487Z,62.30
2018-12-01T01:00:26.423Z,57.60
2018-12-01T01:01:26.405Z,59.30
2018-12-01T01:02:26.399Z,59.20
2018-12-01T01:03:26.393Z,58.10
2018-12-01T01:04:26.378Z,61.40
2018-12-01T01:05:26.409Z,65.70
2018-12-01T01:06:26.357Z,61.50
2018-12-01T01:07:26.341Z,61.90
2018-12-01T01:08:26.333Z,57.50
2018-12-01T01:09:26.321Z,64.60
2018-12-01T01:10:26.312Z,62.90
2018-12-01T01:11:26.314Z,58.80
2018-12-01T01:12:26.292Z,60.20
2018-12-01T01:13:26.287Z,64.00
2018-12-01T01:14:26.269Z,62.30
2018-12-01T01:15:26.269Z,64.60
2018-12-01T01:16:26.248Z,64.00
2018-12-01T01:17:26.247Z,68.20
2018-12-01T01:18:26.232Z,62.00
2018-12-01T01:19:26.227Z,59.40
2018-12-01T01:20:26.236Z,57.60
2018-12-01T01:21:26.195Z,59.70
2018-12-01T01:22:26.189Z,59.10
2018-12-01T01:23:26.184Z,57.60
2018-12-01T01:24:26.168Z,62.60
2018-12-01T01:25:26.152Z,60.90
2018-12-01T01:26:26.158Z,62.50
2018-12-01T01:27:26.137Z,58.10
2018-12-01T01:28:26.120Z,64.80
2018-12-01T01:29:26.116Z,62.90
2018-12-01T01:30:26.104Z,59.80
2018-12-01T01:31:26.129Z,61.00
2018-12-01T01:32:26.082Z,66.70
2018-12-01T01:33:26.075Z,64.00
2018-12-01T01:34:26.067Z,66.80
2018-12-01T01:35:26.050Z,65.60
2018-12-01T01:36:26.037Z,62.10
2018-12-01T01:37:26.065Z,61.70
2018-12-01T01:38:26.019Z,63.30
2018-12-01T01:39:26.014Z,68.10
2018-12-01T01:40:26.001Z,67.90
2018-12-01T01:41:25.992Z,71.50
2018-12-01T01:42:25.978Z,65.70
2018-12-01T01:43:25.978Z,65.20
2018-12-01T01:44:25.958Z,64.20
2018-12-01T01:45:25.954Z,66.60
2018-12-01T01:46:25.933Z,73.00
2018-12-01T01:47:25.926Z,65.80
2018-12-01T01:48:25.920Z,68.00
2018-12-01T01:49:25.903Z,66.40
2018-12-01T01:50:25.888Z,62.50
2018-12-01T01:51:25.897Z,66.00
2018-12-01T01:52:25.873Z,69.90
2018-12-01T01:53:25.869Z,69.20
2018-12-01T01:54:25.849Z,67.80
2018-12-01T01:55:25.840Z,67.80
2018-12-01T01:56:25.839Z,67.80
2018-12-01T01:57:25.870Z,65.10
2018-12-01T01:58:25.809Z,67.00
2018-12-01T01:59:25.805Z,70.40
2018-12-01T02:00:25.788Z,71.80
2018-12-01T02:01:25.781Z,72.60
2018-12-01T02:02:25.769Z,68.60
2018-12-01T02:03:25.767Z,67.90
2018-12-01T02:04:25.747Z,72.80
2018-12-01T02:05:25.745Z,69.50
2018-12-01T02:06:25.720Z,72.40
2018-12-01T02:07:25.717Z,68.90
2018-12-01T02:08:25.710Z,73.90
2018-12-01T02:09:25.705Z,68.80
2018-12-01T02:10:25.686Z,73.40
2018-12-01T02:11:25.666Z,73.50
2018-12-01T02:12:25.656Z,74.30
2018-12-01T02:13:25.661Z,74.40
2018-12-01T02:14:25.635Z,69.70
2018-12-01T02:15:25.647Z,82.20
2018-12-01T02:16:25.623Z,74.20
2018-12-01T02:17:25.622Z,79.50
2018-12-01T02:18:25.592Z,77.50
2018-12-01T02:19:25.588Z,70.50
2018-12-01T02:20:25.590Z,76.70
2018-12-01T02:21:25.567Z,85.80
2018-12-01T02:22:25.559Z,72.90
2018-12-01T02:23:25.553Z,70.70
2018-12-01T02:24:25.534Z,73.70
2018-12-01T02:25:25.530Z,77.30
2018-12-01T02:26:25.515Z,75.80
2018-12-01T02:27:25.503Z,74.80
2018-12-01T02:28:25.487Z,70.30
2018-12-01T02:29:25.482Z,75.00
2018-12-01T02:30:25.485Z,77.60
2018-12-01T02:31:25.466Z,75.00
2018-12-01T02:32:25.447Z,74.40
2018-12-01T02:33:25.434Z,78.90
2018-12-01T02:34:25.435Z,73.40
2018-12-01T02:35:25.454Z,73.20
2018-12-01T02:36:25.408Z,74.20
2018-12-01T02:37:25.402Z,79.00
2018-12-01T02:38:25.386Z,77.30
2018-12-01T02:39:25.375Z,78.10
2018-12-01T02:40:25.367Z,80.30
2018-12-01T02:41:25.364Z,82.60
2018-12-01T02:42:25.341Z,75.60
2018-12-01T02:43:25.335Z,77.50
2018-12-01T02:44:25.318Z,74.40
2018-12-01T02:45:25.318Z,82.50
2018-12-01T02:46:25.315Z,74.90
2018-12-01T02:47:25.292Z,74.60
2018-12-01T02:48:25.278Z,78.90
2018-12-01T02:49:25.271Z,77.50
2018-12-01T02:50:25.262Z,79.40
2018-12-01T02:51:25.286Z,72.10
2018-12-01T02:52:25.234Z,80.20
2018-12-01T02:53:25.225Z,78.60
2018-12-01T02:54:25.217Z,73.50
2018-12-01T02:55:25.207Z,72.60
2018-12-01T02:56:25.199Z,73.90
2018-12-01T02:57:25.195Z,73.50
2018-12-01T02:58:25.176Z,83.80
2018-12-01T02:59:25.179Z,76.00
2018-12-01T03:00:25.156Z,82.50
2018-12-01T03:01:25.144Z,72.40
2018-12-01T03:02:25.128Z,79.70
2018-12-01T03:03:25.135Z,79.30
2018-12-01T03:04:25.111Z,78.20
2018-12-01T03:05:25.103Z,79.30
2018-12-01T03:06:25.135Z,74.60
2018-12-01T03:07:25.080Z,77.10
2018-12-01T03:08:25.066Z,78.90
2018-12-01T03:09:25.060Z,76.40
2018-12-01T03:10:25.049Z,78.00
2018-12-01T03:11:25.033Z,78.00
2018-12-01T03:12:25.040Z,76.30
2018-12-01T03:13:25.013Z,74.30
2018-12-01T03:14:25.006Z,78.20
2018-12-01T03:15:24.996Z,77.90
2018-12-01T03:16:24.985Z,76.00
2018-12-01T03:17:24.992Z,82.60
2018-12-01T03:18:24.965Z,78.10
2018-12-01T03:19:24.953Z,77.50
2018-12-01T03:20:24.944Z,86.10
2018-12-01T03:21:24.948Z,77.10
2018-12-01T03:22:24.920Z,76.00
2018-12-01T03:23:24.923Z,79.90
2018-12-01T03:24:24.897Z,75.50
2018-12-01T03:25:24.890Z,81.60
2018-12-01T03:26:24.879Z,84.30
2018-12-01T03:27:24.876Z,80.70
2018-12-01T03:28:24.873Z,83.30
2018-12-01T03:29:24.853Z,83.60
2018-12-01T03:30:24.843Z,79.00
2018-12-01T03:31:24.836Z,82.20
2018-12-01T03:32:24.817Z,81.90
2018-12-01T03:33:24.805Z,85.70
2018-12-01T03:34:24.804Z,83.20
2018-12-01T03:35:24.800Z,84.60
2018-12-01T03:36:24.777Z,83.80
2018-12-01T03:37:24.764Z,84.00
2018-12-01T03:38:24.766Z,88.50
2018-12-01T03:39:24.744Z,81.30
2018-12-01T03:40:24.767Z,80.60
2018-12-01T03:41:24.730Z,81.70
2018-12-01T03:42:24.718Z,86.70
2018-12-01T03:43:24.697Z,88.90
2018-12-01T03:44:24.687Z,95.80
2018-12-01T03:45:24.681Z,89.30
2018-12-01T03:46:38.734Z,94.50
2018-12-01T03:47:24.659Z,94.30
2018-12-01T03:48:24.642Z,94.60
2018-12-01T03:49:24.638Z,83.80
2018-12-01T03:50:24.662Z,87.70
2018-12-01T03:51:24.617Z,91.60
2018-12-01T03:52:24.608Z,97.20
2018-12-01T03:53:24.596Z,86.90
2018-12-01T03:54:24.581Z,110.70
2018-12-01T03:55:24.570Z,116.10
2018-12-01T03:56:24.589Z,95.60
2018-12-01T03:57:24.554Z,94.30
2018-12-01T03:58:24.561Z,94.10
2018-12-01T03:59:24.532Z,99.20
2018-12-01T04:00:24.524Z,95.50
2018-12-01T04:01:24.523Z,96.00
2018-12-01T04:02:24.503Z,94.70
2018-12-01T04:03:24.490Z,101.20
2018-12-01T04:04:24.487Z,100.10
2018-12-01T04:05:24.470Z,100.40
2018-12-01T04:06:24.502Z,109.90
2018-12-01T04:07:24.446Z,109.00
2018-12-01T04:08:24.443Z,110.80
2018-12-01T04:09:24.433Z,104.30
2018-12-01T04:10:24.419Z,103.60
2018-12-01T04:11:24.409Z,101.80
2018-12-01T04:12:24.434Z,119.80
2018-12-01T04:13:24.387Z,109.40
2018-12-01T04:14:24.374Z,91.40
2018-12-01T04:15:24.372Z,113.40
2018-12-01T04:16:24.356Z,115.40
2018-12-01T04:17:24.347Z,109.50
2018-12-01T04:18:24.349Z,112.00
2018-12-01T04:19:24.319Z,115.50
2018-12-01T04:20:24.318Z,112.80
2018-12-01T04:21:24.304Z,105.60
2018-12-01T04:22:24.328Z,122.50
2018-12-01T04:23:24.295Z,117.00
2018-12-01T04:24:24.273Z,115.30
2018-12-01T04:25:24.258Z,124.80
2018-12-01T04:26:24.249Z,115.80
2018-12-01T04:27:24.245Z,111.30
2018-12-01T04:28:24.246Z,121.80
2018-12-01T04:29:24.222Z,107.60
2018-12-01T04:30:24.205Z,164.30
2018-12-01T04:31:24.204Z,142.00
2018-12-01T04:32:24.189Z,155.80
2018-12-01T04:33:24.213Z,190.30
2018-12-01T04:34:24.179Z,131.90
2018-12-01T04:35:24.153Z,120.30
2018-12-01T04:36:24.148Z,126.80
2018-12-01T04:37:24.133Z,115.90
2018-12-01T04:38:24.132Z,114.40
2018-12-01T04:39:24.122Z,114.50
2018-12-01T04:40:24.109Z,128.60
2018-12-01T04:41:24.109Z,116.70
2018-12-01T04:42:24.081Z,131.80
2018-12-01T04:43:24.081Z,118.70
2018-12-01T04:44:24.064Z,126.70
2018-12-01T04:45:24.050Z,126.10
2018-12-01T04:46:24.043Z,121.70
2018-12-01T04:47:24.028Z,111.90
2018-12-01T04:48:24.023Z,101.30
2018-12-01T04:49:24.025Z,107.10
2018-12-01T04:50:24.002Z,110.40
2018-12-01T04:51:24.005Z,107.20
2018-12-01T04:52:23.988Z,106.80
2018-12-01T04:53:23.975Z,113.00
2018-12-01T04:54:23.983Z,109.50
2018-12-01T04:55:23.953Z,118.50
2018-12-01T04:56:23.938Z,109.70
2018-12-01T04:57:23.927Z,103.90
2018-12-01T04:58:23.934Z,104.10
2018-12-01T04:59:23.904Z,109.00
2018-12-01T05:00:23.903Z,113.50
2018-12-01T05:01:23.883Z,111.70
2018-12-01T05:02:23.883Z,100.00
2018-12-01T05:03:23.879Z,114.60
2018-12-01T05:04:23.856Z,112.80
2018-12-01T05:05:23.850Z,114.90
2018-12-01T05:06:23.830Z,148.70
2018-12-01T05:07:23.824Z,116.70
2018-12-01T05:08:23.855Z,109.70
2018-12-01T05:09:23.801Z,96.20
2018-12-01T05:10:23.795Z,106.80
2018-12-01T05:11:23.783Z,116.70
2018-12-01T05:12:23.769Z,111.60
2018-12-01T05:13:23.760Z,100.60
2018-12-01T05:14:23.763Z,112.60
2018-12-01T05:15:23.765Z,115.70
2018-12-01T05:16:23.739Z,107.80
2018-12-01T05:17:23.717Z,106.00
2018-12-01T05:18:23.710Z,113.70
2018-12-01T05:19:23.697Z,111.10
2018-12-01T05:20:23.687Z,106.90
2018-12-01T05:21:23.689Z,125.20
2018-12-01T05:22:23.669Z,111.30
2018-12-01T05:23:23.659Z,115.70
2018-12-01T05:24:23.646Z,109.40
2018-12-01T05:25:23.645Z,104.10
2018-12-01T05:26:23.634Z,112.20
2018-12-01T05:27:23.615Z,113.00
2018-12-01T05:28:23.619Z,109.20
2018-12-01T05:29:23.592Z,115.00
2018-12-01T05:30:23.586Z,117.90
2018-12-01T05:31:23.618Z,106.90
2018-12-01T05:32:23.565Z,102.20
2018-12-01T05:33:23.549Z,103.40
2018-12-01T05:34:23.546Z,112.70
2018-12-01T05:35:23.534Z,109.20
2018-12-01T05:36:23.530Z,120.70
2018-12-01T05:37:23.515Z,110.30
2018-12-01T05:38:23.512Z,102.20
2018-12-01T05:39:23.491Z,101.40
2018-12-01T05:40:23.482Z,123.70
2018-12-01T05:41:23.465Z,105.40
2018-12-01T05:42:23.477Z,119.30
2018-12-01T05:43:23.456Z,101.10
2018-12-01T05:44:23.440Z,105.50
2018-12-01T05:45:23.431Z,99.30
2018-12-01T05:46:23.421Z,106.10
2018-12-01T05:47:23.413Z,108.50
2018-12-01T05:48:23.432Z,105.60
2018-12-01T05:49:23.396Z,106.70
2018-12-01T05:50:23.372Z,106.40
2018-12-01T05:51:23.361Z,108.40
2018-12-01T05:52:23.359Z,133.00
2018-12-01T05:53:23.341Z,109.50
2018-12-01T05:54:23.346Z,108.30
2018-12-01T05:55:23.322Z,101.30
2018-12-01T05:56:23.358Z,115.60
2018-12-01T05:57:23.306Z,109.40
2018-12-01T05:58:23.294Z,111.80
2018-12-01T05:59:23.297Z,112.50
2018-12-01T06:00:23.277Z,103.70
2018-12-01T06:01:23.263Z,102.10
2018-12-01T06:02:23.296Z,107.70
2018-12-01T06:03:23.241Z,114.90
2018-12-01T06:04:23.265Z,119.40
2018-12-01T06:05:23.222Z,105.40
2018-12-01T06:06:23.210Z,106.30
2018-12-01T06:07:23.193Z,107.20
2018-12-01T06:08:23.185Z,107.60
2018-12-01T06:09:23.173Z,114.90
2018-12-01T06:10:23.235Z,103.80
2018-12-01T06:11:23.159Z,111.50
2018-12-01T06:12:23.152Z,107.10
2018-12-01T06:13:23.131Z,109.40
2018-12-01T06:14:23.129Z,117.20
2018-12-01T06:15:23.116Z,116.60
2018-12-01T06:16:23.122Z,118.40
2018-12-01T06:17:23.091Z,113.40
2018-12-01T06:18:23.085Z,112.20
2018-12-01T06:19:23.069Z,116.40
2018-12-01T06:20:23.070Z,122.60
2018-12-01T06:21:23.069Z,107.00
2018-12-01T06:22:23.046Z,106.10
2018-12-01T06:23:23.031Z,101.90
2018-12-01T06:24:23.015Z,110.60
2018-12-01T06:25:23.012Z,113.70
2018-12-01T06:26:23.006Z,104.50
2018-12-01T06:27:22.991Z,131.50
2018-12-01T06:28:22.978Z,100.40
2018-12-01T06:29:22.971Z,102.10
2018-12-01T06:30:22.953Z,106.70
2018-12-01T06:31:22.960Z,92.00
2018-12-01T06:32:22.932Z,89.20
2018-12-01T06:33:22.932Z,90.50
2018-12-01T06:34:22.930Z,101.00
2018-12-01T06:35:22.902Z,99.20
2018-12-01T06:36:22.891Z,101.50
2018-12-01T06:37:22.893Z,99.00
2018-12-01T06:38:22.875Z,104.10
2018-12-01T06:39:22.859Z,108.50
2018-12-01T06:40:22.873Z,112.00
2018-12-01T06:41:22.845Z,117.50
2018-12-01T06:42:22.829Z,118.50
2018-12-01T06:43:22.836Z,106.70
2018-12-01T06:44:22.818Z,104.30
2018-12-01T06:45:22.797Z,102.30
2018-12-01T06:46:22.794Z,101.10
2018-12-01T06:47:22.781Z,94.20
2018-12-01T06:48:22.778Z,103.90
2018-12-01T06:49:22.756Z,95.70
2018-12-01T06:50:22.748Z,96.50
2018-12-01T06:51:22.740Z,95.30
2018-12-01T06:52:22.726Z,109.80
2018-12-01T06:53:22.752Z,93.00
2018-12-01T06:54:22.711Z,104.90
2018-12-01T06:55:22.709Z,98.70
2018-12-01T06:56:22.688Z,96.80
2018-12-01T06:57:22.673Z,111.00
2018-12-01T06:58:22.669Z,100.00
2018-12-01T06:59:22.684Z,107.50
2018-12-01T07:00:22.650Z,95.80
2018-12-01T07:01:22.634Z,101.10
2018-12-01T07:02:22.622Z,99.40
2018-12-01T07:03:22.611Z,97.50
2018-12-01T07:04:22.603Z,100.80
2018-12-01T07:05:22.613Z,95.80
2018-12-01T07:06:22.592Z,99.80
2018-12-01T07:07:22.569Z,101.00
2018-12-01T07:08:22.557Z,88.50
2018-12-01T07:09:22.557Z,96.30
2018-12-01T07:10:22.585Z,97.70
2018-12-01T07:11:22.551Z,92.70
2018-12-01T07:12:22.541Z,96.10
2018-12-01T07:13:22.513Z,83.50
2018-12-01T07:14:22.501Z,91.30
2018-12-01T07:15:22.493Z,97.00
2018-12-01T07:16:22.517Z,122.60
2018-12-01T07:17:22.498Z,99.10
2018-12-01T07:18:22.454Z,113.10
2018-12-01T07:19:22.444Z,112.30
2018-12-01T07:20:22.440Z,93.20
2018-12-01T07:21:22.428Z,87.80
2018-12-01T07:22:22.425Z,87.30
2018-12-01T07:23:22.415Z,92.70
2018-12-01T07:24:22.394Z,92.20
2018-12-01T07:25:22.388Z,94.10
2018-12-01T07:26:22.377Z,88.10
2018-12-01T07:27:22.377Z,89.90
2018-12-01T07:28:22.358Z,92.80
2018-12-01T07:29:22.345Z,97.80
2018-12-01T07:30:22.370Z,84.30
2018-12-01T07:31:22.319Z,88.20
2018-12-01T07:32:22.328Z,88.80
2018-12-01T07:33:22.305Z,86.90
2018-12-01T07:34:22.300Z,93.90
2018-12-01T07:35:22.290Z,87.80
2018-12-01T07:36:22.280Z,90.30
2018-12-01T07:37:22.298Z,89.40
2018-12-01T07:38:22.254Z,87.20
2018-12-01T07:39:22.237Z,86.90
2018-12-01T07:40:22.237Z,87.00
2018-12-01T07:41:22.215Z,89.60
2018-12-01T07:42:22.205Z,89.60
2018-12-01T07:43:22.211Z,84.10
2018-12-01T07:44:22.212Z,87.30
2018-12-01T07:45:22.180Z,89.10
2018-12-01T07:46:22.163Z,84.90
2018-12-01T07:47:22.170Z,92.60
2018-12-01T07:48:22.159Z,87.60
2018-12-01T07:49:22.131Z,95.30
2018-12-01T07:50:22.125Z,88.30
2018-12-01T07:51:22.119Z,84.80
2018-12-01T07:52:22.102Z,90.70
2018-12-01T07:53:22.119Z,88.60
2018-12-01T07:54:22.079Z,81.40
2018-12-01T07:55:22.082Z,84.20
2018-12-01T07:56:22.061Z,83.40
2018-12-01T07:57:22.055Z,92.50
2018-12-01T07:58:22.077Z,88.50
2018-12-01T07:59:22.028Z,89.90
2018-12-01T08:00:22.019Z,82.70
2018-12-01T08:01:22.010Z,86.80
2018-12-01T08:02:22.019Z,83.10
2018-12-01T08:03:22.011Z,82.30
2018-12-01T08:04:22.036Z,84.50
2018-12-01T08:05:21.967Z,97.30
2018-12-01T08:06:21.957Z,88.20
2018-12-01T08:07:21.951Z,78.50
2018-12-01T08:08:21.937Z,84.40
2018-12-01T08:09:21.935Z,89.20
2018-12-01T08:10:21.931Z,90.40
2018-12-01T08:11:21.917Z,88.60
2018-12-01T08:12:21.900Z,81.20
2018-12-01T08:13:21.884Z,84.70
2018-12-01T08:14:21.885Z,81.10
2018-12-01T08:15:21.929Z,79.50
2018-12-01T08:16:21.852Z,83.00
2018-12-01T08:17:21.861Z,83.20
2018-12-01T08:18:21.835Z,81.50
2018-12-01T08:19:21.826Z,85.00
2018-12-01T08:20:21.811Z,83.80
2018-12-01T08:21:21.851Z,78.50
2018-12-01T08:22:21.793Z,84.20
2018-12-01T08:23:21.783Z,82.10
2018-12-01T08:24:21.768Z,81.50
2018-12-01T08:25:21.765Z,78.60
2018-12-01T08:26:21.757Z,120.40
2018-12-01T08:27:21.746Z,249.50
2018-12-01T08:28:21.735Z,100.70
2018-12-01T08:29:21.715Z,90.80
2018-12-01T08:30:21.715Z,77.80
2018-12-01T08:31:21.696Z,78.70
2018-12-01T08:32:21.727Z,83.80
2018-12-01T08:33:21.673Z,74.40
2018-12-01T08:34:21.674Z,76.60
2018-12-01T08:35:21.652Z,75.40
2018-12-01T08:36:21.651Z,79.20
2018-12-01T08:37:21.640Z,73.30
2018-12-01T08:38:21.643Z,79.90
2018-12-01T08:39:21.607Z,78.10
2018-12-01T08:40:21.604Z,75.20
2018-12-01T08:41:21.589Z,78.80
2018-12-01T08:42:21.581Z,77.80
2018-12-01T08:43:21.578Z,78.30
2018-12-01T08:44:21.558Z,74.00
2018-12-01T08:45:21.552Z,80.70
2018-12-01T08:46:21.561Z,75.80
2018-12-01T08:47:21.543Z,74.10
2018-12-01T08:48:21.537Z,74.70
2018-12-01T08:49:21.510Z,82.50
2018-12-01T08:50:21.514Z,75.20
2018-12-01T08:51:21.498Z,74.00
2018-12-01T08:52:21.486Z,79.90
2018-12-01T08:53:21.514Z,70.20
2018-12-01T08:54:21.449Z,76.20
2018-12-01T08:55:21.441Z,78.00
2018-12-01T08:56:21.429Z,79.70
2018-12-01T08:57:21.418Z,77.50
2018-12-01T08:58:21.412Z,77.80
2018-12-01T08:59:21.427Z,74.90
2018-12-01T09:00:21.386Z,70.90
2018-12-01T09:01:21.384Z,72.70
2018-12-01T09:02:21.374Z,80.00
2018-12-01T09:03:21.360Z,70.20
2018-12-01T09:04:21.350Z,73.00
2018-12-01T09:05:21.364Z,75.20
2018-12-01T09:06:21.324Z,70.70
2018-12-01T09:07:21.318Z,72.60
2018-12-01T09:08:21.312Z,75.70
2018-12-01T09:09:21.298Z,78.60
2018-12-01T09:10:21.296Z,73.60
2018-12-01T09:11:21.275Z,76.70
2018-12-01T09:12:21.267Z,77.10
2018-12-01T09:13:21.256Z,74.00
2018-12-01T09:14:21.248Z,72.90
2018-12-01T09:15:21.251Z,71.90
2018-12-01T09:16:21.225Z,71.10
2018-12-01T09:17:21.210Z,73.40
2018-12-01T09:18:21.198Z,67.50
2018-12-01T09:19:21.195Z,88.50
2018-12-01T09:20:21.180Z,293.50
2018-12-01T09:21:21.189Z,163.50
2018-12-01T09:22:21.159Z,90.70
2018-12-01T09:23:21.150Z,76.20
2018-12-01T09:24:21.140Z,67.50
2018-12-01T09:25:21.130Z,60.20
2018-12-01T09:26:21.717Z,57.50
2018-12-01T09:27:22.680Z,59.60
2018-12-01T09:28:21.096Z,59.60
2018-12-01T09:29:21.084Z,56.80
2018-12-01T09:30:21.113Z,62.90
2018-12-01T09:31:21.067Z,63.50
2018-12-01T09:32:21.058Z,58.10
2018-12-01T09:33:21.040Z,59.30
2018-12-01T09:34:21.035Z,60.00
2018-12-01T09:35:21.023Z,59.90
2018-12-01T09:36:21.014Z,56.90
2018-12-01T09:37:21.041Z,60.90
2018-12-01T09:38:20.991Z,56.30
2018-12-01T09:39:20.985Z,57.70
2018-12-01T09:40:20.968Z,57.20
2018-12-01T09:41:20.955Z,57.70
2018-12-01T09:42:24.803Z,55.90
2018-12-01T09:43:20.946Z,59.10
2018-12-01T09:44:20.928Z,57.00
2018-12-01T09:45:20.916Z,60.70
2018-12-01T09:46:20.907Z,60.40
2018-12-01T09:47:20.899Z,54.70
2018-12-01T09:48:20.933Z,60.40
2018-12-01T09:49:20.891Z,59.50
2018-12-01T09:50:20.865Z,58.80
2018-12-01T09:51:20.851Z,58.60
2018-12-01T09:52:20.854Z,56.70
2018-12-01T09:53:20.833Z,57.50
2018-12-01T09:54:20.841Z,55.40
2018-12-01T09:55:20.814Z,53.50
2018-12-01T09:56:20.818Z,57.30
2018-12-01T09:57:20.793Z,58.40
2018-12-01T09:58:20.781Z,57.70
2018-12-01T09:59:20.776Z,58.30
2018-12-01T10:00:20.764Z,59.10
2018-12-01T10:01:20.755Z,56.20
2018-12-01T10:02:20.735Z,56.90
2018-12-01T10:03:20.728Z,57.40
2018-12-01T10:04:20.726Z,58.00
2018-12-01T10:05:20.704Z,52.30
2018-12-01T10:06:20.747Z,58.70
2018-12-01T10:07:20.681Z,50.70
2018-12-01T10:08:20.677Z,56.20
2018-12-01T10:09:20.660Z,55.80
2018-12-01T10:10:20.654Z,56.80
2018-12-01T10:11:20.643Z,53.80
2018-12-01T10:12:20.644Z,53.70
2018-12-01T10:13:20.628Z,52.10
2018-12-01T10:14:20.619Z,52.50
2018-12-01T10:15:20.600Z,53.90
2018-12-01T10:16:20.593Z,51.90
2018-12-01T10:17:20.583Z,53.20
2018-12-01T10:18:20.562Z,52.20
2018-12-01T10:19:20.557Z,52.80
2018-12-01T10:20:20.556Z,53.40
2018-12-01T10:21:20.538Z,53.90
2018-12-01T10:22:20.537Z,50.70
2018-12-01T10:23:20.516Z,52.20
2018-12-01T10:24:20.506Z,53.40
2018-12-01T10:25:20.493Z,56.50
2018-12-01T10:26:20.493Z,93.70
2018-12-01T10:27:20.489Z,53.30
2018-12-01T10:28:20.455Z,50.10
2018-12-01T10:29:20.450Z,51.00
2018-12-01T10:30:20.439Z,49.90
2018-12-01T10:31:20.424Z,50.90
2018-12-01T10:32:20.422Z,49.80
2018-12-01T10:33:20.409Z,48.90
2018-12-01T10:34:20.407Z,51.70
2018-12-01T10:35:20.382Z,47.10
2018-12-01T10:36:20.371Z,47.80
2018-12-01T10:37:20.361Z,51.20
2018-12-01T10:38:20.353Z,50.00
2018-12-01T10:39:20.356Z,48.10
2018-12-01T10:40:20.342Z,45.50
2018-12-01T10:41:20.319Z,47.70
2018-12-01T10:42:20.323Z,48.70
2018-12-01T10:43:20.304Z,49.40
2018-12-01T10:44:20.307Z,51.90
2018-12-01T10:45:20.284Z,48.50
2018-12-01T10:46:20.275Z,49.90
2018-12-01T10:47:20.254Z,54.30
2018-12-01T10:48:20.247Z,47.30
2018-12-01T10:49:20.237Z,47.60
2018-12-01T10:50:20.234Z,48.40
2018-12-01T10:51:20.213Z,46.10
2018-12-01T10:52:20.201Z,48.00
2018-12-01T10:53:20.194Z,50.10
2018-12-01T10:54:20.183Z,47.10
2018-12-01T10:55:20.188Z,47.10
2018-12-01T10:56:20.168Z,49.70
2018-12-01T10:57:20.149Z,49.10
2018-12-01T10:58:20.137Z,45.00
2018-12-01T10:59:20.131Z,47.50
2018-12-01T11:00:20.112Z,47.80
2018-12-01T11:01:20.131Z,45.20
2018-12-01T11:02:20.094Z,43.60
2018-12-01T11:03:20.085Z,44.60
2018-12-01T11:04:20.072Z,47.70
2018-12-01T11:05:20.061Z,45.10
2018-12-01T11:06:20.062Z,46.20
2018-12-01T11:07:20.046Z,45.50
2018-12-01T11:08:20.037Z,47.00
2018-12-01T11:09:20.032Z,42.70
2018-12-01T11:10:20.016Z,48.20
2018-12-01T11:11:20.045Z,45.40
2018-12-01T11:12:19.991Z,46.50
2018-12-01T11:13:19.983Z,48.70
2018-12-01T11:14:20.013Z,47.20
2018-12-01T11:15:19.962Z,46.40
2018-12-01T11:16:20.733Z,42.70
2018-12-01T11:17:19.994Z,42.70
2018-12-01T11:18:19.926Z,42.90
2018-12-01T11:19:19.989Z,81.20
2018-12-01T11:20:19.901Z,89.30
2018-12-01T11:21:19.897Z,46.90
2018-12-01T11:22:19.948Z,393.80
2018-12-01T11:23:19.924Z,249.10
2018-12-01T11:24:19.862Z,44.30
2018-12-01T11:25:19.853Z,44.90
2018-12-01T11:26:19.882Z,45.40
2018-12-01T11:27:19.830Z,43.10
2018-12-01T11:28:19.829Z,44.00
2018-12-01T11:29:19.821Z,44.20
2018-12-01T11:30:19.798Z,45.90
2018-12-01T11:31:19.791Z,41.30
2018-12-01T11:32:19.778Z,43.30
2018-12-01T11:33:19.765Z,42.30
2018-12-01T11:34:19.759Z,45.60
2018-12-01T11:35:19.747Z,43.70
2018-12-01T11:36:19.730Z,46.10
2018-12-01T11:37:19.721Z,40.60
2018-12-01T11:38:19.713Z,41.50
2018-12-01T11:39:19.706Z,40.30
2018-12-01T11:40:19.693Z,41.90
2018-12-01T11:41:19.674Z,43.20
2018-12-01T11:42:20.085Z,40.80
2018-12-01T11:43:19.766Z,45.40
2018-12-01T11:44:19.647Z,38.70
2018-12-01T11:45:19.683Z,39.60
2018-12-01T11:46:19.717Z,41.40
2018-12-01T11:47:19.615Z,41.70
2018-12-01T11:48:19.606Z,43.10
2018-12-01T11:49:19.597Z,41.50
2018-12-01T11:50:19.585Z,43.70
2018-12-01T11:51:19.584Z,41.80
2018-12-01T11:52:19.707Z,39.60
2018-12-01T11:53:19.548Z,38.50
2018-12-01T11:54:19.547Z,42.80
2018-12-01T11:55:19.533Z,39.70
2018-12-01T11:56:19.530Z,39.90
2018-12-01T11:57:19.503Z,41.20
2018-12-01T11:58:19.498Z,40.40
2018-12-01T11:59:19.482Z,40.80
2018-12-01T12:00:19.485Z,41.20
2018-12-01T12:01:19.476Z,42.80
2018-12-01T12:02:19.458Z,39.70
2018-12-01T12:03:19.456Z,40.50
2018-12-01T12:04:19.437Z,42.50
2018-12-01T12:05:19.419Z,42.80
2018-12-01T12:06:19.407Z,44.40
2018-12-01T12:07:19.439Z,45.70
2018-12-01T12:08:19.390Z,41.80
2018-12-01T12:09:19.384Z,44.80
2018-12-01T12:10:19.365Z,46.10
2018-12-01T12:11:19.392Z,44.10
2018-12-01T12:12:19.350Z,43.80
2018-12-01T12:13:19.370Z,45.00
2018-12-01T12:14:19.322Z,43.50
2018-12-01T12:15:19.316Z,41.30
2018-12-01T12:16:19.307Z,43.90
2018-12-01T12:17:19.289Z,41.10
2018-12-01T12:18:19.279Z,43.90
2018-12-01T12:19:19.284Z,43.50
2018-12-01T12:20:19.263Z,43.20
2018-12-01T12:21:19.246Z,41.10
2018-12-01T12:22:19.242Z,45.50
2018-12-01T12:23:19.230Z,43.40
2018-12-01T12:24:19.230Z,41.60
2018-12-01T12:25:19.205Z,43.80
2018-12-01T12:26:19.199Z,41.70
2018-12-01T12:27:19.235Z,43.50
2018-12-01T12:28:19.178Z,47.20
2018-12-01T12:29:19.179Z,46.40
2018-12-01T12:30:19.152Z,40.70
2018-12-01T12:31:19.145Z,42.40
2018-12-01T12:32:19.141Z,43.30
2018-12-01T12:33:19.121Z,43.10
2018-12-01T12:34:19.114Z,46.20
2018-12-01T12:35:19.109Z,43.70
2018-12-01T12:36:19.089Z,44.80
2018-12-01T12:37:19.092Z,44.30
2018-12-01T12:38:19.074Z,44.70
2018-12-01T12:39:19.058Z,43.80
2018-12-01T12:40:19.053Z,43.70
2018-12-01T12:41:19.051Z,107.10
2018-12-01T12:42:19.328Z,68.00
2018-12-01T12:43:19.740Z,56.90
2018-12-01T12:44:19.028Z,50.80
2018-12-01T12:45:19.001Z,41.20
2018-12-01T12:46:18.982Z,40.10